createdAt,value
2023-03-29T00:01:34.780Z,101302.92
2023-03-29T00:04:09.479Z,101302.23
2023-03-29T00:06:42.547Z,101302.48
2023-03-29T00:09:15.631Z,101299.86
2023-03-29T00:11:48.689Z,101298.80
2023-03-29T00:14:21.758Z,101292.52
2023-03-29T00:16:54.846Z,101285.60
2023-03-29T00:19:29.123Z,101287.85
2023-03-29T00:22:01.938Z,101292.45
2023-03-29T00:24:35.002Z,101292.34
2023-03-29T00:27:08.061Z,101290.65
2023-03-29T00:29:41.221Z,101291.66
2023-03-29T00:32:14.085Z,101288.33
2023-03-29T00:34:50.942Z,101285.20
2023-03-29T00:37:26.962Z,101278.81
2023-03-29T00:39:59.671Z,101276.41
2023-03-29T00:42:32.864Z,101278.81
2023-03-29T00:45:18.889Z,101275.31
2023-03-29T00:47:57.127Z,101274.80
2023-03-29T00:50:36.360Z,101269.00
2023-03-29T00:53:13.656Z,101262.05
2023-03-29T00:55:50.285Z,101268.54
2023-03-29T00:58:28.012Z,101262.19
2023-03-29T01:01:05.055Z,101260.55
2023-03-29T01:03:46.754Z,101258.04
2023-03-29T01:06:24.892Z,101255.60
2023-03-29T01:09:01.349Z,101246.48
2023-03-29T01:11:40.541Z,101245.16
2023-03-29T01:14:18.516Z,101244.83
2023-03-29T01:16:51.922Z,101241.89
2023-03-29T01:19:31.123Z,101241.02
2023-03-29T01:22:14.830Z,101244.25
2023-03-29T01:25:00.388Z,101241.42
2023-03-29T01:27:49.918Z,101245.98
2023-03-29T01:30:28.227Z,101245.09
2023-03-29T01:33:05.590Z,101246.55
2023-03-29T01:35:43.849Z,101240.64
2023-03-29T01:38:21.607Z,101238.80
2023-03-29T01:40:55.399Z,101235.58
2023-03-29T01:43:36.246Z,101229.61
2023-03-29T01:46:12.823Z,101225.66
2023-03-29T01:48:51.156Z,101229.70
2023-03-29T01:51:31.018Z,101226.25
2023-03-29T01:54:07.501Z,101218.86
2023-03-29T01:56:45.044Z,101220.54
2023-03-29T01:59:22.258Z,101220.05
2023-03-29T02:02:00.516Z,101218.98
2023-03-29T02:04:35.561Z,101200.08
2023-03-29T02:07:10.659Z,101213.80
2023-03-29T02:09:45.112Z,101208.49
2023-03-29T02:12:20.056Z,101202.55
2023-03-29T02:14:52.611Z,101208.70
2023-03-29T02:17:27.230Z,101209.01
2023-03-29T02:20:10.359Z,101214.30
2023-03-29T02:22:48.380Z,101209.36
2023-03-29T02:25:22.639Z,101206.79
2023-03-29T02:27:54.603Z,101198.61
2023-03-29T02:30:31.864Z,101200.84
2023-03-29T02:33:11.334Z,101192.44
2023-03-29T02:35:51.479Z,101192.86
2023-03-29T02:38:27.860Z,101181.91
2023-03-29T02:41:02.387Z,101174.67
2023-03-29T02:43:34.373Z,101177.88
2023-03-29T02:46:08.907Z,101175.35
2023-03-29T02:48:42.546Z,101180.41
2023-03-29T02:51:20.334Z,101175.70
2023-03-29T02:53:58.914Z,101168.44
2023-03-29T02:56:31.717Z,101158.39
2023-03-29T02:59:04.350Z,101157.98
2023-03-29T03:01:37.826Z,101155.68
2023-03-29T03:04:11.166Z,101152.50
2023-03-29T03:06:44.015Z,101148.97
2023-03-29T03:09:17.044Z,101145.38
2023-03-29T03:11:51.343Z,101133.91
2023-03-29T03:14:24.860Z,101128.43
2023-03-29T03:16:57.887Z,101140.05
2023-03-29T03:19:30.810Z,101144.55
2023-03-29T03:22:06.033Z,101132.74
2023-03-29T03:24:38.768Z,101145.55
2023-03-29T03:27:11.320Z,101127.09
2023-03-29T03:29:44.792Z,101146.31
2023-03-29T03:32:43.617Z,101139.90
2023-03-29T03:35:40.151Z,101146.13
2023-03-29T03:38:13.521Z,101150.88
2023-03-29T03:40:46.194Z,101141.79
2023-03-29T03:43:18.916Z,101129.96
2023-03-29T03:45:53.116Z,101134.64
2023-03-29T03:48:28.529Z,101139.54
2023-03-29T03:51:11.767Z,101134.42
2023-03-29T03:53:44.364Z,101135.85
2023-03-29T03:56:20.646Z,101122.86
2023-03-29T03:59:12.007Z,101140.23
2023-03-29T04:02:00.574Z,101136.35
2023-03-29T04:04:34.345Z,101133.96
2023-03-29T04:07:18.038Z,101129.27
2023-03-29T04:10:11.981Z,101129.82
2023-03-29T04:12:58.867Z,101127.18
2023-03-29T04:15:32.526Z,101128.79
2023-03-29T04:18:12.412Z,101127.36
2023-03-29T04:20:49.840Z,101106.22
2023-03-29T04:23:24.466Z,101123.19
2023-03-29T04:25:59.404Z,101121.48
2023-03-29T04:29:01.123Z,101121.36
2023-03-29T04:31:41.998Z,101122.16
2023-03-29T04:34:18.238Z,101123.17
2023-03-29T04:36:51.462Z,101120.10
2023-03-29T04:39:33.927Z,101122.81
2023-03-29T04:42:08.854Z,101123.77
2023-03-29T04:44:44.241Z,101119.31
2023-03-29T04:47:18.539Z,101117.77
2023-03-29T04:50:02.196Z,101113.20
2023-03-29T04:52:50.848Z,101106.88
2023-03-29T04:55:24.132Z,101107.42
2023-03-29T04:58:02.823Z,101101.24
2023-03-29T05:00:46.212Z,101099.05
2023-03-29T05:03:18.945Z,101089.40
2023-03-29T05:06:09.567Z,101091.63
2023-03-29T05:08:43.482Z,101087.23
2023-03-29T05:11:26.683Z,101087.00
2023-03-29T05:14:02.552Z,101087.21
2023-03-29T05:16:38.240Z,101090.46
2023-03-29T05:19:11.430Z,101089.14
2023-03-29T05:21:47.506Z,101087.82
2023-03-29T05:24:23.471Z,101086.00
2023-03-29T05:27:02.651Z,101084.30
2023-03-29T05:29:38.801Z,101088.57
2023-03-29T05:32:50.088Z,101084.20
2023-03-29T05:35:29.291Z,101085.19
2023-03-29T05:38:02.755Z,101085.33
2023-03-29T05:40:35.960Z,101088.16
2023-03-29T05:43:35.343Z,101090.50
2023-03-29T05:46:09.916Z,101091.14
2023-03-29T05:48:44.101Z,101092.73
2023-03-29T05:51:18.929Z,101089.88
2023-03-29T05:53:52.213Z,101078.77
2023-03-29T05:56:25.111Z,101095.64
2023-03-29T05:58:59.474Z,101087.80
2023-03-29T06:01:32.431Z,101084.44
2023-03-29T06:04:08.437Z,101079.81
2023-03-29T06:06:55.098Z,101075.92
2023-03-29T06:09:27.824Z,101073.27
2023-03-29T06:12:07.235Z,101068.67
2023-03-29T06:14:44.228Z,101058.13
2023-03-29T06:17:34.758Z,101071.38
2023-03-29T06:20:11.115Z,101067.04
2023-03-29T06:22:46.954Z,101070.79
2023-03-29T06:25:18.619Z,101070.08
2023-03-29T06:27:52.364Z,101077.11
2023-03-29T06:30:26.089Z,101073.60
2023-03-29T06:32:59.722Z,101074.04
2023-03-29T06:36:05.836Z,101071.23
2023-03-29T06:38:39.031Z,101072.52
2023-03-29T06:41:24.871Z,101070.36
2023-03-29T06:44:29.663Z,101056.05
2023-03-29T06:47:07.347Z,101070.97
2023-03-29T06:49:40.800Z,101070.88
2023-03-29T06:52:32.204Z,101066.80
2023-03-29T06:55:07.609Z,101066.87
2023-03-29T06:57:41.468Z,101065.11
2023-03-29T07:00:18.332Z,101065.82
2023-03-29T07:03:23.954Z,101061.21
2023-03-29T07:06:09.932Z,101062.40
2023-03-29T07:08:45.126Z,101061.58
2023-03-29T07:11:34.058Z,101056.11
2023-03-29T07:14:15.788Z,101055.93
2023-03-29T07:16:48.904Z,101057.66
2023-03-29T07:19:30.599Z,101059.64
2023-03-29T07:22:15.600Z,101059.91
2023-03-29T07:24:57.480Z,101061.00
2023-03-29T07:27:29.876Z,101065.30
2023-03-29T07:30:02.798Z,101070.51
2023-03-29T07:32:36.488Z,101069.98
2023-03-29T07:35:30.960Z,101073.95
2023-03-29T07:38:04.395Z,101072.58
2023-03-29T07:40:37.373Z,101072.16
2023-03-29T07:43:39.283Z,101068.87
2023-03-29T07:46:12.741Z,101071.31
2023-03-29T07:48:45.957Z,101065.21
2023-03-29T07:51:20.720Z,101065.36
2023-03-29T07:53:54.367Z,101063.64
2023-03-29T07:56:49.671Z,101059.34
2023-03-29T07:59:29.187Z,101057.77
2023-03-29T08:02:12.501Z,101055.16
2023-03-29T08:04:49.036Z,101052.59
2023-03-29T08:07:21.751Z,101046.72
2023-03-29T08:10:15.385Z,101044.45
2023-03-29T08:13:08.543Z,101043.64
2023-03-29T08:16:07.143Z,101044.26
2023-03-29T08:18:43.585Z,101043.80
2023-03-29T08:21:16.598Z,101035.69
2023-03-29T08:23:52.121Z,101038.07
2023-03-29T08:26:30.008Z,101033.64
2023-03-29T08:29:04.155Z,101031.86
2023-03-29T08:31:37.258Z,101032.34
2023-03-29T08:34:10.154Z,101028.77
2023-03-29T08:37:02.187Z,101027.15
2023-03-29T08:39:44.137Z,101026.52
2023-03-29T08:42:54.011Z,101025.32
2023-03-29T08:45:35.584Z,101028.50
2023-03-29T08:48:18.818Z,101024.84
2023-03-29T08:50:55.378Z,101021.52
2023-03-29T08:53:32.785Z,101019.23
2023-03-29T08:56:18.527Z,101023.70
2023-03-29T08:59:21.766Z,101021.77
2023-03-29T09:01:58.077Z,101013.08
2023-03-29T09:04:35.008Z,101002.30
2023-03-29T09:07:28.088Z,101014.95
2023-03-29T09:10:02.330Z,101015.66
2023-03-29T09:12:59.222Z,101012.95
2023-03-29T09:15:38.356Z,101012.92
2023-03-29T09:18:29.116Z,101009.77
2023-03-29T09:21:08.355Z,100999.55
2023-03-29T09:24:20.309Z,100986.20
2023-03-29T09:27:06.101Z,100999.02
2023-03-29T09:29:57.525Z,100995.98
2023-03-29T09:32:48.639Z,100990.74
2023-03-29T09:35:26.242Z,100982.55
2023-03-29T09:37:59.733Z,100982.86
2023-03-29T09:40:39.558Z,100984.00
2023-03-29T09:43:20.403Z,100982.63
2023-03-29T09:45:57.886Z,100969.89
2023-03-29T09:48:35.889Z,100977.31
2023-03-29T09:51:10.259Z,100975.31
2023-03-29T09:53:44.130Z,100971.96
2023-03-29T09:56:27.094Z,100974.89
2023-03-29T09:59:20.003Z,100963.89
2023-03-29T10:01:53.211Z,100966.35
2023-03-29T10:04:29.194Z,100957.33
2023-03-29T10:07:04.829Z,100933.91
2023-03-29T10:09:38.423Z,100945.84
2023-03-29T10:12:23.240Z,100935.98
2023-03-29T10:14:55.319Z,100931.70
2023-03-29T10:17:33.408Z,100929.87
2023-03-29T10:20:10.177Z,100927.95
2023-03-29T10:22:50.893Z,100923.72
2023-03-29T10:25:30.002Z,100922.83
2023-03-29T10:28:08.206Z,100921.08
2023-03-29T10:30:41.438Z,100921.05
2023-03-29T10:33:22.021Z,100916.13
2023-03-29T10:35:56.608Z,100909.13
2023-03-29T10:38:32.109Z,100912.07
2023-03-29T10:41:12.678Z,100905.73
2023-03-29T10:43:51.119Z,100909.34
2023-03-29T10:46:29.044Z,100904.04
2023-03-29T10:49:06.098Z,100900.85
2023-03-29T10:51:45.173Z,100896.34
2023-03-29T10:54:21.972Z,100897.95
2023-03-29T10:56:58.199Z,100901.02
2023-03-29T10:59:33.951Z,100886.39
2023-03-29T11:02:39.969Z,100897.30
2023-03-29T11:05:25.884Z,100894.63
2023-03-29T11:08:20.023Z,100882.62
2023-03-29T11:11:04.181Z,100877.03
2023-03-29T11:13:45.788Z,100869.42
2023-03-29T11:16:28.752Z,100868.70
2023-03-29T11:19:30.889Z,100861.35
2023-03-29T11:22:11.546Z,100864.88
2023-03-29T11:24:59.093Z,100858.85
2023-03-29T11:27:41.144Z,100850.79
2023-03-29T11:30:24.272Z,100850.10
2023-03-29T11:33:06.569Z,100831.55
2023-03-29T11:35:48.417Z,100845.65
2023-03-29T11:38:29.653Z,100851.91
2023-03-29T11:41:09.479Z,100842.23
2023-03-29T11:43:47.798Z,100838.02
2023-03-29T11:46:25.040Z,100835.61
2023-03-29T11:49:02.694Z,100835.04
2023-03-29T11:51:39.494Z,100826.25
2023-03-29T11:54:19.620Z,100817.20
2023-03-29T11:56:56.956Z,100813.77
2023-03-29T11:59:35.897Z,100808.33
2023-03-29T12:02:18.889Z,100810.52
2023-03-29T12:04:56.222Z,100807.48
2023-03-29T12:07:34.138Z,100805.02
2023-03-29T12:10:11.019Z,100798.90
2023-03-29T12:12:51.547Z,100791.31
2023-03-29T12:15:26.964Z,100791.02
2023-03-29T12:18:07.511Z,100772.75
2023-03-29T12:20:42.281Z,100775.94
2023-03-29T12:23:19.360Z,100778.95
2023-03-29T12:26:04.196Z,100781.77
2023-03-29T12:29:07.237Z,100780.05
2023-03-29T12:31:47.904Z,100772.13
2023-03-29T12:34:44.847Z,100771.01
2023-03-29T12:37:53.308Z,100747.73
2023-03-29T12:40:47.177Z,100760.41
2023-03-29T12:43:43.570Z,100763.91
2023-03-29T12:46:38.953Z,100759.15
2023-03-29T12:49:17.192Z,100749.89
2023-03-29T12:51:51.468Z,100751.28
2023-03-29T12:54:28.072Z,100757.81
2023-03-29T12:57:03.968Z,100758.16
2023-03-29T12:59:44.545Z,100749.93
2023-03-29T13:02:37.650Z,100745.44
2023-03-29T13:05:31.468Z,100733.30
2023-03-29T13:08:21.056Z,100738.45
2023-03-29T13:10:57.533Z,100735.31
2023-03-29T13:13:35.099Z,100720.74
2023-03-29T13:16:17.368Z,100719.81
2023-03-29T13:19:06.758Z,100731.45
2023-03-29T13:21:49.081Z,100722.27
2023-03-29T13:24:38.381Z,100722.36
2023-03-29T13:27:25.331Z,100722.02
2023-03-29T13:30:27.578Z,100718.27
2023-03-29T13:33:13.430Z,100711.72
2023-03-29T13:35:54.538Z,100702.98
2023-03-29T13:38:31.906Z,100708.32
2023-03-29T13:41:07.474Z,100703.56
2023-03-29T13:43:53.654Z,100694.56
2023-03-29T13:46:37.844Z,100696.03
2023-03-29T13:49:20.980Z,100693.34
2023-03-29T13:52:07.250Z,100689.61
2023-03-29T13:54:45.808Z,100693.30
2023-03-29T13:57:21.027Z,100694.02
2023-03-29T14:00:01.577Z,100685.67
2023-03-29T14:02:50.358Z,100686.42
2023-03-29T14:05:29.560Z,100675.96
2023-03-29T14:08:09.970Z,100676.48
2023-03-29T14:10:46.191Z,100677.04
2023-03-29T14:13:23.463Z,100675.15
2023-03-29T14:16:02.969Z,100677.34
2023-03-29T14:18:38.749Z,100679.67
2023-03-29T14:21:15.084Z,100679.61
2023-03-29T14:23:54.829Z,100673.82
2023-03-29T14:26:31.726Z,100671.71
2023-03-29T14:29:05.605Z,100671.30
2023-03-29T14:31:40.332Z,100665.40
2023-03-29T14:34:17.217Z,100658.28
2023-03-29T14:36:54.123Z,100656.08
2023-03-29T14:39:27.614Z,100650.27
2023-03-29T14:42:01.822Z,100637.52
2023-03-29T14:44:35.860Z,100649.27
2023-03-29T14:47:11.147Z,100619.94
2023-03-29T14:49:45.714Z,100640.36
2023-03-29T14:52:19.798Z,100637.48
2023-03-29T14:54:56.705Z,100633.08
2023-03-29T14:57:34.453Z,100633.22
2023-03-29T15:00:22.477Z,100630.20
2023-03-29T15:02:58.685Z,100622.89
2023-03-29T15:05:41.175Z,100620.84
2023-03-29T15:08:20.227Z,100611.26
2023-03-29T15:10:53.461Z,100617.39
2023-03-29T15:13:28.450Z,100616.28
2023-03-29T15:16:05.810Z,100615.98
2023-03-29T15:18:41.755Z,100612.58
2023-03-29T15:21:18.389Z,100611.30
2023-03-29T15:23:56.996Z,100601.86
2023-03-29T15:26:33.009Z,100598.86
2023-03-29T15:29:11.770Z,100592.48
2023-03-29T15:31:55.298Z,100598.59
2023-03-29T15:34:30.990Z,100594.48
2023-03-29T15:37:04.180Z,100589.19
2023-03-29T15:39:40.893Z,100578.02
2023-03-29T15:42:14.323Z,100602.59
2023-03-29T15:44:47.150Z,100600.02
2023-03-29T15:47:20.048Z,100605.39
2023-03-29T15:49:53.078Z,100612.98
2023-03-29T15:52:25.945Z,100611.27
2023-03-29T15:54:58.505Z,100607.35
2023-03-29T15:57:31.952Z,100603.50
2023-03-29T16:00:08.197Z,100600.55
2023-03-29T16:02:44.849Z,100600.58
2023-03-29T16:05:18.049Z,100607.17
2023-03-29T16:07:50.684Z,100606.06
2023-03-29T16:10:23.315Z,100615.38
2023-03-29T16:12:56.116Z,100621.66
2023-03-29T16:15:29.740Z,100617.46
2023-03-29T16:18:02.899Z,100614.85
2023-03-29T16:20:35.684Z,100610.88
2023-03-29T16:23:09.800Z,100607.45
2023-03-29T16:25:43.635Z,100612.30
2023-03-29T16:28:16.546Z,100612.20
2023-03-29T16:30:49.797Z,100601.49
2023-03-29T16:33:23.035Z,100612.39
2023-03-29T16:35:56.280Z,100615.10
2023-03-29T16:38:29.367Z,100620.15
2023-03-29T16:41:03.118Z,100620.36
2023-03-29T16:43:38.591Z,100613.16
2023-03-29T16:46:12.438Z,100614.02
2023-03-29T16:48:45.200Z,100612.48
2023-03-29T16:51:18.084Z,100620.54
2023-03-29T16:53:51.516Z,100614.44
2023-03-29T16:56:24.250Z,100597.67
2023-03-29T16:58:57.807Z,100596.64
2023-03-29T17:01:30.740Z,100590.17
2023-03-29T17:04:04.084Z,100569.11
2023-03-29T17:06:37.115Z,100587.17
2023-03-29T17:09:10.111Z,100588.02
2023-03-29T17:11:42.980Z,100586.84
2023-03-29T17:14:15.855Z,100588.16
2023-03-29T17:16:48.426Z,100583.05
2023-03-29T17:19:21.526Z,100584.47
2023-03-29T17:21:54.564Z,100588.45
2023-03-29T17:24:27.479Z,100585.42
2023-03-29T17:27:00.290Z,100575.55
2023-03-29T17:29:33.570Z,100575.67
2023-03-29T17:32:07.130Z,100563.35
2023-03-29T17:34:40.089Z,100589.66
2023-03-29T17:37:13.033Z,100584.36
2023-03-29T17:39:46.143Z,100576.67
2023-03-29T17:42:19.147Z,100581.48
2023-03-29T17:44:51.728Z,100583.08
2023-03-29T17:47:24.443Z,100556.05
2023-03-29T17:49:57.138Z,100585.10
2023-03-29T17:52:30.136Z,100588.36
2023-03-29T17:55:03.362Z,100589.29
2023-03-29T17:57:36.223Z,100584.84
2023-03-29T18:00:13.327Z,100588.39
2023-03-29T18:02:46.406Z,100575.63
2023-03-29T18:05:20.024Z,100586.08
2023-03-29T18:07:52.602Z,100588.52
2023-03-29T18:10:25.635Z,100591.55
2023-03-29T18:12:58.424Z,100587.50
2023-03-29T18:15:30.985Z,100595.09
2023-03-29T18:18:04.474Z,100595.05
2023-03-29T18:20:37.476Z,100593.78
2023-03-29T18:23:10.519Z,100598.69
2023-03-29T18:25:43.186Z,100600.92
2023-03-29T18:28:16.202Z,100600.23
2023-03-29T18:30:53.423Z,100600.73
2023-03-29T18:33:26.230Z,100602.60
2023-03-29T18:35:59.359Z,100604.46
2023-03-29T18:38:35.194Z,100601.05
2023-03-29T18:41:09.344Z,100601.83
2023-03-29T18:43:44.409Z,100606.77
2023-03-29T18:46:17.418Z,100607.25
2023-03-29T18:48:50.361Z,100603.73
2023-03-29T18:51:24.175Z,100605.73
2023-03-29T18:53:58.023Z,100605.41
2023-03-29T18:56:30.958Z,100596.27
2023-03-29T18:59:06.385Z,100594.31
2023-03-29T19:01:40.542Z,100594.62
2023-03-29T19:04:14.864Z,100597.10
2023-03-29T19:06:49.442Z,100596.31
2023-03-29T19:09:22.346Z,100593.48
2023-03-29T19:11:54.902Z,100595.41
2023-03-29T19:14:27.810Z,100596.02
2023-03-29T19:17:00.753Z,100590.20
2023-03-29T19:19:33.424Z,100587.07
2023-03-29T19:22:06.591Z,100589.08
2023-03-29T19:24:40.260Z,100585.85
2023-03-29T19:27:13.134Z,100583.34
2023-03-29T19:29:46.257Z,100583.31
2023-03-29T19:32:19.144Z,100582.00
2023-03-29T19:34:52.217Z,100578.98
2023-03-29T19:37:24.807Z,100575.99
2023-03-29T19:39:57.377Z,100577.61
2023-03-29T19:42:30.602Z,100567.95
2023-03-29T19:45:04.151Z,100581.84
2023-03-29T19:47:37.358Z,100573.48
2023-03-29T19:50:12.388Z,100585.04
2023-03-29T19:52:43.554Z,100568.54
2023-03-29T19:55:17.942Z,100580.20
2023-03-29T19:57:50.436Z,100578.91
2023-03-29T20:00:25.166Z,100582.08
2023-03-29T20:02:56.846Z,100580.09
2023-03-29T20:05:30.098Z,100577.35
2023-03-29T20:08:02.997Z,100568.38
2023-03-29T20:10:35.881Z,100577.59
2023-03-29T20:13:09.164Z,100577.34
2023-03-29T20:15:42.025Z,100574.23
2023-03-29T20:18:15.381Z,100571.84
2023-03-29T20:20:49.929Z,100574.74
2023-03-29T20:23:23.079Z,100562.45
2023-03-29T20:25:58.177Z,100563.46
2023-03-29T20:28:31.591Z,100564.36
2023-03-29T20:31:09.125Z,100560.25
2023-03-29T20:33:44.490Z,100554.55
2023-03-29T20:36:23.257Z,100556.55
2023-03-29T20:38:56.383Z,100548.80
2023-03-29T20:41:29.417Z,100543.29
2023-03-29T20:44:03.059Z,100544.92
2023-03-29T20:46:37.837Z,100546.30
2023-03-29T20:49:10.958Z,100544.17
2023-03-29T20:51:43.962Z,100540.66
2023-03-29T20:54:18.289Z,100546.64
2023-03-29T20:56:51.032Z,100545.01
2023-03-29T20:59:24.251Z,100547.02
2023-03-29T21:01:57.208Z,100546.95
2023-03-29T21:04:30.139Z,100543.19
2023-03-29T21:07:05.284Z,100537.73
2023-03-29T21:09:38.280Z,100532.55
2023-03-29T21:12:11.350Z,100530.27
2023-03-29T21:14:44.735Z,100531.55
2023-03-29T21:17:17.867Z,100529.59
2023-03-29T21:19:52.028Z,100527.89
2023-03-29T21:22:24.858Z,100521.75
2023-03-29T21:24:57.724Z,100524.85
2023-03-29T21:27:30.430Z,100523.65
2023-03-29T21:30:03.219Z,100519.94
2023-03-29T21:32:35.903Z,100511.36
2023-03-29T21:35:10.193Z,100506.46
2023-03-29T21:37:43.135Z,100518.67
2023-03-29T21:40:16.398Z,100514.42
2023-03-29T21:42:49.348Z,100506.23
2023-03-29T21:45:22.074Z,100508.72
2023-03-29T21:47:54.526Z,100504.30
2023-03-29T21:50:27.677Z,100503.47
2023-03-29T21:53:00.698Z,100493.33
2023-03-29T21:55:36.252Z,100492.93
2023-03-29T21:58:09.090Z,100485.73
2023-03-29T22:00:41.979Z,100482.52
2023-03-29T22:03:15.160Z,100480.77
2023-03-29T22:05:58.285Z,100475.54
2023-03-29T22:08:31.086Z,100456.20
2023-03-29T22:11:09.488Z,100467.30
2023-03-29T22:13:43.863Z,100464.64
2023-03-29T22:16:18.354Z,100461.28
2023-03-29T22:18:52.615Z,100463.96
2023-03-29T22:21:26.868Z,100460.68
2023-03-29T22:24:01.329Z,100458.13
2023-03-29T22:26:35.228Z,100460.09
2023-03-29T22:29:08.138Z,100459.42
2023-03-29T22:31:41.247Z,100455.22
2023-03-29T22:34:14.223Z,100451.52
2023-03-29T22:36:47.316Z,100454.84
2023-03-29T22:39:19.970Z,100453.36
2023-03-29T22:41:52.330Z,100445.60
2023-03-29T22:44:25.408Z,100436.58
2023-03-29T22:46:57.769Z,100441.84
2023-03-29T22:49:30.586Z,100454.16
2023-03-29T22:52:03.573Z,100446.73
2023-03-29T22:54:36.231Z,100453.02
2023-03-29T22:57:09.304Z,100450.86
2023-03-29T22:59:42.293Z,100432.15
2023-03-29T23:02:15.260Z,100442.79
2023-03-29T23:04:48.275Z,100444.64
2023-03-29T23:07:20.807Z,100440.10
2023-03-29T23:09:53.709Z,100433.17
2023-03-29T23:12:27.193Z,100432.00
2023-03-29T23:14:59.655Z,100430.42
2023-03-29T23:17:32.773Z,100427.41
2023-03-29T23:20:07.157Z,100427.19
2023-03-29T23:22:40.294Z,100425.92
2023-03-29T23:25:13.555Z,100426.14
2023-03-29T23:27:46.320Z,100423.41
2023-03-29T23:30:20.086Z,100421.59
2023-03-29T23:32:53.843Z,100425.38
2023-03-29T23:35:26.957Z,100420.97
2023-03-29T23:37:59.933Z,100422.30
2023-03-29T23:40:33.391Z,100405.86
2023-03-29T23:43:06.125Z,100416.77
2023-03-29T23:45:39.732Z,100419.96
2023-03-29T23:48:12.555Z,100416.95
2023-03-29T23:50:47.300Z,100410.69
2023-03-29T23:53:19.870Z,100407.64
2023-03-29T23:55:53.285Z,100402.80
2023-03-29T23:58:26.316Z,100399.33
